createdAt,value
2019-02-16T00:01:47.285Z,-0.10
2019-02-16T00:04:17.778Z,-0.10
2019-02-16T00:06:48.179Z,-0.10
2019-02-16T00:09:18.651Z,-0.10
2019-02-16T00:11:49.088Z,-0.20
2019-02-16T00:14:19.484Z,-0.20
2019-02-16T00:16:49.903Z,-0.20
2019-02-16T00:19:20.207Z,-0.20
2019-02-16T00:21:50.643Z,-0.20
2019-02-16T00:24:21.097Z,-0.10
2019-02-16T00:26:51.550Z,-0.10
2019-02-16T00:29:21.891Z,0.00
2019-02-16T00:31:52.309Z,0.00
2019-02-16T00:34:22.736Z,0.00
2019-02-16T00:36:53.075Z,0.00
2019-02-16T00:39:23.549Z,0.00
2019-02-16T00:41:53.964Z,-0.10
2019-02-16T00:44:24.451Z,-0.10
2019-02-16T00:46:54.889Z,-0.10
2019-02-16T00:49:25.451Z,-0.20
2019-02-16T00:51:55.906Z,-0.20
2019-02-16T00:54:26.273Z,-0.20
2019-02-16T00:56:57.606Z,-0.30
2019-02-16T00:59:28.158Z,-0.30
2019-02-16T01:01:58.675Z,-0.40
2019-02-16T01:04:29.132Z,-0.40
2019-02-16T01:06:59.603Z,-0.50
2019-02-16T01:09:30.051Z,-0.60
2019-02-16T01:12:00.372Z,-0.60
2019-02-16T01:14:30.862Z,-0.60
2019-02-16T01:17:01.306Z,-0.70
2019-02-16T01:19:31.734Z,-0.70
2019-02-16T01:22:02.183Z,-0.80
2019-02-16T01:24:32.642Z,-0.80
2019-02-16T01:27:03.075Z,-0.70
2019-02-16T01:29:33.471Z,-0.80
2019-02-16T01:32:03.927Z,-0.80
2019-02-16T01:34:34.358Z,-1.00
2019-02-16T01:37:04.771Z,-1.00
2019-02-16T01:39:35.157Z,-1.10
2019-02-16T01:42:05.603Z,-1.00
2019-02-16T01:44:35.995Z,-1.00
2019-02-16T01:47:06.474Z,-0.90
2019-02-16T01:49:36.894Z,-0.90
2019-02-16T01:52:07.319Z,-0.90
2019-02-16T01:54:37.653Z,-0.90
2019-02-16T01:57:08.097Z,-1.00
2019-02-16T01:59:38.605Z,-1.10
2019-02-16T02:02:09.116Z,-1.20
2019-02-16T02:04:39.608Z,-1.00
2019-02-16T02:07:09.951Z,-1.00
2019-02-16T02:09:40.474Z,-1.00
2019-02-16T02:12:10.891Z,-1.00
2019-02-16T02:14:41.329Z,-1.10
2019-02-16T02:17:11.808Z,-1.20
2019-02-16T02:19:42.127Z,-1.30
2019-02-16T02:22:12.464Z,-1.40
2019-02-16T02:24:42.899Z,-1.30
2019-02-16T02:27:13.329Z,-1.30
2019-02-16T02:29:43.803Z,-1.20
2019-02-16T02:32:14.259Z,-1.10
2019-02-16T02:34:44.597Z,-1.20
2019-02-16T02:37:15.068Z,-1.20
2019-02-16T02:39:45.513Z,-1.20
2019-02-16T02:42:15.946Z,-1.20
2019-02-16T02:44:46.348Z,-1.30
2019-02-16T02:47:16.633Z,-1.30
2019-02-16T02:49:46.925Z,-1.30
2019-02-16T02:52:17.380Z,-1.40
2019-02-16T02:54:48.059Z,-1.40
2019-02-16T02:57:18.611Z,-1.50
2019-02-16T02:59:49.102Z,-1.50
2019-02-16T03:02:19.535Z,-1.50
2019-02-16T03:04:49.929Z,-1.40
2019-02-16T03:07:20.586Z,-1.40
2019-02-16T03:09:51.074Z,-1.40
2019-02-16T03:12:21.493Z,-1.40
2019-02-16T03:14:52.071Z,-1.30
2019-02-16T03:17:22.533Z,-1.40
2019-02-16T03:19:52.950Z,-1.40
2019-02-16T03:22:23.250Z,-1.50
2019-02-16T03:24:53.640Z,-1.60
2019-02-16T03:28:27.295Z,-1.70
2019-02-16T03:31:57.659Z,-1.70
2019-02-16T03:34:41.539Z,-1.70
2019-02-16T03:38:28.635Z,-1.80
2019-02-16T03:40:59.125Z,-1.70
2019-02-16T03:43:29.521Z,-1.70
2019-02-16T03:45:59.940Z,-1.60
2019-02-16T03:48:30.314Z,-1.70
2019-02-16T03:51:00.648Z,-1.80
2019-02-16T03:53:31.131Z,-1.80
2019-02-16T03:56:01.517Z,-1.70
2019-02-16T03:58:31.981Z,-1.80
2019-02-16T04:01:02.415Z,-1.80
2019-02-16T04:03:32.847Z,-1.80
2019-02-16T04:06:03.295Z,-1.80
2019-02-16T04:08:33.796Z,-1.90
2019-02-16T04:11:04.254Z,-2.00
2019-02-16T04:13:34.771Z,-2.00
2019-02-16T04:16:05.280Z,-2.00
2019-02-16T04:18:35.770Z,-2.00
2019-02-16T04:21:06.222Z,-2.00
2019-02-16T04:23:36.802Z,-2.10
2019-02-16T04:26:09.206Z,-2.10
2019-02-16T04:28:39.787Z,-2.10
2019-02-16T04:31:10.263Z,-2.10
2019-02-16T04:33:40.654Z,-2.00
2019-02-16T04:36:11.142Z,-2.00
2019-02-16T04:38:41.612Z,-2.00
2019-02-16T04:41:12.040Z,-2.00
2019-02-16T04:43:42.598Z,-2.00
2019-02-16T04:46:13.014Z,-2.00
2019-02-16T04:48:43.373Z,-2.10
2019-02-16T04:51:13.923Z,-2.10
2019-02-16T04:53:44.344Z,-2.20
2019-02-16T04:56:14.953Z,-2.20
2019-02-16T04:58:45.378Z,-2.20
2019-02-16T05:01:15.756Z,-2.30
2019-02-16T05:03:46.206Z,-2.30
2019-02-16T05:06:16.724Z,-2.20
2019-02-16T05:08:47.268Z,-2.20
2019-02-16T05:11:17.807Z,-2.20
2019-02-16T05:13:48.276Z,-2.20
2019-02-16T05:16:18.729Z,-2.20
2019-02-16T05:18:49.151Z,-2.20
2019-02-16T05:21:19.725Z,-2.20
2019-02-16T05:23:50.208Z,-2.10
2019-02-16T05:26:20.650Z,-2.10
2019-02-16T05:28:51.116Z,-2.00
2019-02-16T05:31:21.681Z,-2.00
2019-02-16T05:33:52.128Z,-1.90
2019-02-16T05:36:22.516Z,-2.00
2019-02-16T05:38:52.992Z,-2.10
2019-02-16T05:41:23.446Z,-2.10
2019-02-16T05:43:53.926Z,-2.10
2019-02-16T05:46:24.799Z,-2.20
2019-02-16T05:48:55.311Z,-2.30
2019-02-16T05:51:25.799Z,-2.40
2019-02-16T05:53:56.278Z,-2.40
2019-02-16T05:56:26.762Z,-2.30
2019-02-16T05:58:57.221Z,-2.30
2019-02-16T06:01:27.629Z,-2.30
2019-02-16T06:03:58.035Z,-2.30
2019-02-16T06:06:28.493Z,-2.30
2019-02-16T06:08:58.990Z,-2.30
2019-02-16T06:11:29.448Z,-2.30
2019-02-16T06:13:59.861Z,-2.30
2019-02-16T06:16:30.269Z,-2.30
2019-02-16T06:19:00.757Z,-2.40
2019-02-16T06:21:31.165Z,-2.40
2019-02-16T06:24:01.678Z,-2.40
2019-02-16T06:26:32.188Z,-2.40
2019-02-16T06:29:02.717Z,-2.40
2019-02-16T06:31:33.232Z,-2.40
2019-02-16T06:34:03.741Z,-2.40
2019-02-16T06:36:38.256Z,-2.40
2019-02-16T06:39:08.685Z,-2.30
2019-02-16T06:41:39.061Z,-2.30
2019-02-16T06:44:09.522Z,-2.30
2019-02-16T06:46:40.032Z,-2.40
2019-02-16T06:49:10.509Z,-2.40
2019-02-16T06:51:41.034Z,-2.40
2019-02-16T06:54:11.529Z,-2.40
2019-02-16T06:57:00.784Z,-2.30
2019-02-16T06:59:31.320Z,-2.20
2019-02-16T07:02:01.786Z,-2.10
2019-02-16T07:04:32.303Z,-2.00
2019-02-16T07:07:02.748Z,-2.00
2019-02-16T07:09:33.255Z,-1.90
2019-02-16T07:12:03.812Z,-1.80
2019-02-16T07:14:34.375Z,-1.80
2019-02-16T07:17:35.818Z,-1.80
2019-02-16T07:20:07.959Z,-1.70
2019-02-16T07:22:38.520Z,-1.70
2019-02-16T07:25:09.361Z,-1.70
2019-02-16T07:27:39.879Z,-1.60
2019-02-16T07:30:11.730Z,-1.50
2019-02-16T07:32:42.208Z,-1.40
2019-02-16T07:35:12.666Z,-1.30
2019-02-16T07:37:43.199Z,-1.30
2019-02-16T07:40:13.781Z,-1.20
2019-02-16T07:42:54.771Z,-1.10
2019-02-16T07:45:54.386Z,-1.00
2019-02-16T07:48:33.543Z,-0.90
2019-02-16T07:51:26.089Z,-0.80
2019-02-16T07:54:06.759Z,-0.70
2019-02-16T07:56:54.549Z,-0.60
2019-02-16T07:59:33.780Z,-0.60
2019-02-16T08:02:10.231Z,-0.40
2019-02-16T08:04:51.015Z,-0.40
2019-02-16T08:07:39.795Z,-0.30
2019-02-16T08:10:26.224Z,-0.20
2019-02-16T08:13:15.550Z,-0.10
2019-02-16T08:15:58.606Z,0.00
2019-02-16T08:18:46.978Z,0.20
2019-02-16T08:21:36.351Z,0.30
2019-02-16T08:24:14.477Z,0.40
2019-02-16T08:27:13.632Z,0.60
2019-02-16T08:29:52.806Z,0.80
2019-02-16T08:32:42.846Z,1.10
2019-02-16T08:35:22.620Z,1.40
2019-02-16T08:38:08.024Z,1.80
2019-02-16T08:40:45.094Z,2.70
2019-02-16T08:43:28.372Z,4.10
2019-02-16T08:46:16.279Z,5.50
2019-02-16T08:49:02.781Z,6.90
2019-02-16T08:51:43.985Z,8.10
2019-02-16T08:54:31.992Z,9.30
2019-02-16T08:57:16.831Z,10.20
2019-02-16T09:00:07.229Z,10.70
2019-02-16T09:03:07.171Z,11.10
2019-02-16T09:05:53.400Z,11.70
2019-02-16T09:08:57.895Z,12.40
2019-02-16T09:11:50.255Z,12.30
2019-02-16T09:14:45.427Z,13.20
2019-02-16T09:17:28.668Z,14.10
2019-02-16T09:20:20.743Z,13.20
2019-02-16T09:22:56.763Z,12.30
2019-02-16T09:25:40.543Z,12.10
2019-02-16T09:28:27.570Z,12.30
2019-02-16T09:31:04.346Z,12.10
2019-02-16T09:33:56.724Z,11.50
2019-02-16T09:36:52.207Z,11.00
2019-02-16T09:39:44.394Z,10.90
2019-02-16T09:42:23.607Z,10.70
2019-02-16T09:45:03.742Z,11.60
2019-02-16T09:48:08.223Z,11.90
2019-02-16T09:51:09.357Z,12.10
2019-02-16T09:53:50.375Z,12.30
2019-02-16T09:56:39.723Z,12.20
2019-02-16T09:59:34.902Z,12.20
2019-02-16T10:02:33.339Z,12.50
2019-02-16T10:05:28.499Z,12.80
2019-02-16T10:08:07.177Z,12.90
2019-02-16T10:10:47.944Z,12.80
2019-02-16T10:13:36.556Z,12.70
2019-02-16T10:16:35.213Z,12.80
2019-02-16T10:19:22.977Z,12.70
2019-02-16T10:22:12.291Z,12.50
2019-02-16T10:24:55.905Z,12.40
2019-02-16T10:30:11.928Z,12.50
2019-02-16T10:33:07.183Z,13.00
2019-02-16T10:35:43.927Z,12.90
2019-02-16T10:38:36.215Z,12.50
2019-02-16T10:41:25.505Z,12.00
2019-02-16T10:44:13.510Z,11.50
2019-02-16T10:47:01.517Z,11.10
2019-02-16T10:49:50.827Z,10.80
2019-02-16T10:52:29.651Z,10.50
2019-02-16T10:55:22.140Z,10.20
2019-02-16T10:58:16.621Z,9.90
2019-02-16T11:00:58.195Z,9.60
2019-02-16T11:03:46.285Z,9.40
2019-02-16T11:06:50.901Z,9.30
2019-02-16T11:09:39.678Z,9.10
2019-02-16T11:12:27.737Z,9.00
2019-02-16T11:15:16.079Z,8.90
2019-02-16T11:18:05.408Z,9.00
2019-02-16T11:21:03.868Z,8.90
2019-02-16T11:23:46.086Z,8.90
2019-02-16T11:26:41.509Z,9.10
2019-02-16T11:29:46.541Z,9.30
2019-02-16T11:32:34.400Z,9.40
2019-02-16T11:35:22.738Z,9.50
2019-02-16T11:38:18.369Z,9.50
2019-02-16T11:41:08.868Z,9.50
2019-02-16T11:43:51.820Z,9.50
2019-02-16T11:46:46.109Z,9.70
2019-02-16T11:49:44.992Z,9.80
2019-02-16T11:52:33.814Z,10.00
2019-02-16T11:55:26.444Z,10.10
2019-02-16T11:58:14.434Z,10.10
2019-02-16T12:01:02.603Z,10.20
2019-02-16T12:03:50.343Z,10.30
2019-02-16T12:06:32.100Z,10.60
2019-02-16T12:09:16.295Z,10.90
2019-02-16T12:12:08.885Z,11.30
2019-02-16T12:15:04.353Z,12.00
2019-02-16T12:17:52.560Z,12.80
2019-02-16T12:20:48.234Z,13.90
2019-02-16T12:23:37.953Z,15.50
2019-02-16T12:26:27.565Z,16.20
2019-02-16T12:29:17.073Z,17.20
2019-02-16T12:31:55.558Z,18.10
2019-02-16T12:34:37.196Z,18.50
2019-02-16T12:37:15.657Z,18.80
2019-02-16T12:40:13.860Z,19.10
2019-02-16T12:42:53.624Z,19.60
2019-02-16T12:45:37.545Z,19.40
2019-02-16T12:48:15.092Z,20.00
2019-02-16T12:51:07.378Z,19.40
2019-02-16T12:53:59.463Z,18.90
2019-02-16T12:56:44.380Z,18.40
2019-02-16T12:59:39.579Z,18.10
2019-02-16T13:02:28.946Z,18.00
2019-02-16T13:05:24.117Z,18.00
2019-02-16T13:08:28.773Z,18.40
2019-02-16T13:11:07.774Z,18.60
2019-02-16T13:13:58.153Z,18.90
2019-02-16T13:16:39.519Z,18.80
2019-02-16T13:19:27.135Z,18.60
2019-02-16T13:22:09.214Z,18.70
2019-02-16T13:24:55.170Z,19.10
2019-02-16T13:27:33.845Z,18.70
2019-02-16T13:30:12.143Z,18.10
2019-02-16T13:33:08.745Z,17.50
2019-02-16T13:35:58.429Z,16.70
2019-02-16T13:38:50.552Z,15.80
2019-02-16T13:41:39.306Z,15.00
2019-02-16T13:44:19.464Z,14.50
2019-02-16T13:47:14.745Z,14.00
2019-02-16T13:50:16.126Z,13.50
2019-02-16T13:52:56.857Z,13.10
2019-02-16T13:55:38.216Z,12.60
2019-02-16T13:58:19.902Z,12.30
2019-02-16T14:01:00.058Z,12.00
2019-02-16T14:03:43.905Z,11.70
2019-02-16T14:06:34.164Z,11.50
2019-02-16T14:09:11.773Z,11.20
2019-02-16T14:11:53.503Z,11.10
2019-02-16T14:14:31.806Z,11.00
2019-02-16T14:17:36.403Z,10.90
2019-02-16T14:20:07.837Z,10.90
2019-02-16T14:22:39.292Z,10.90
2019-02-16T14:25:13.213Z,10.80
2019-02-16T14:27:43.669Z,10.70
2019-02-16T14:30:14.452Z,10.70
2019-02-16T14:32:45.109Z,10.50
2019-02-16T14:35:15.568Z,10.60
2019-02-16T14:38:20.025Z,10.80
2019-02-16T14:40:50.537Z,11.00
2019-02-16T14:43:21.381Z,11.20
2019-02-16T14:45:52.159Z,11.20
2019-02-16T14:48:22.827Z,11.00
2019-02-16T14:50:53.566Z,10.80
2019-02-16T14:53:24.034Z,10.60
2019-02-16T14:55:54.676Z,10.50
2019-02-16T14:58:25.450Z,10.40
2019-02-16T15:00:57.074Z,10.30
2019-02-16T15:03:28.161Z,10.40
2019-02-16T15:05:58.891Z,10.30
2019-02-16T15:08:29.478Z,10.10
2019-02-16T15:11:00.093Z,10.00
2019-02-16T15:13:30.462Z,10.00
2019-02-16T15:16:01.199Z,9.80
2019-02-16T15:18:31.763Z,9.80
2019-02-16T15:21:02.393Z,9.70
2019-02-16T15:23:32.860Z,9.50
2019-02-16T15:26:03.309Z,9.40
2019-02-16T15:28:34.054Z,9.40
2019-02-16T15:31:05.063Z,9.30
2019-02-16T15:33:35.549Z,9.50
2019-02-16T15:36:06.189Z,9.50
2019-02-16T15:38:36.602Z,9.40
2019-02-16T15:41:07.457Z,9.40
2019-02-16T15:43:38.148Z,9.50
2019-02-16T15:46:08.964Z,9.30
2019-02-16T15:48:39.711Z,9.20
2019-02-16T15:51:10.431Z,9.00
2019-02-16T15:53:40.860Z,8.90
2019-02-16T15:56:11.269Z,8.80
2019-02-16T15:58:42.076Z,8.70
2019-02-16T16:01:12.875Z,8.60
2019-02-16T16:03:44.037Z,8.50
2019-02-16T16:06:14.473Z,8.40
2019-02-16T16:09:12.884Z,8.30
2019-02-16T16:11:48.075Z,8.20
2019-02-16T16:14:34.859Z,8.10
2019-02-16T16:17:15.102Z,8.00
2019-02-16T16:20:07.590Z,7.90
2019-02-16T16:23:05.805Z,7.80
2019-02-16T16:25:54.270Z,7.80
2019-02-16T16:28:46.940Z,7.80
2019-02-16T16:31:48.621Z,7.70
2019-02-16T16:34:38.012Z,7.60
2019-02-16T16:37:36.358Z,7.50
2019-02-16T16:40:30.530Z,7.40
2019-02-16T16:43:14.227Z,7.30
2019-02-16T16:46:18.951Z,7.20
2019-02-16T16:49:11.803Z,7.00
2019-02-16T16:52:15.872Z,6.80
2019-02-16T16:54:54.624Z,6.70
2019-02-16T16:57:50.403Z,6.60
2019-02-16T17:00:51.286Z,6.60
2019-02-16T17:03:37.904Z,6.50
2019-02-16T17:06:36.551Z,6.30
2019-02-16T17:09:26.790Z,6.20
2019-02-16T17:12:14.669Z,6.10
2019-02-16T17:15:02.895Z,6.00
2019-02-16T17:18:01.570Z,5.90
2019-02-16T17:20:57.104Z,5.70
2019-02-16T17:23:45.304Z,5.60
2019-02-16T17:26:37.518Z,5.50
2019-02-16T17:29:18.190Z,5.40
2019-02-16T17:32:05.404Z,5.30
2019-02-16T17:34:53.084Z,5.20
2019-02-16T17:37:45.488Z,5.10
2019-02-16T17:40:44.033Z,4.90
2019-02-16T17:43:24.005Z,4.60
2019-02-16T17:46:19.579Z,4.50
2019-02-16T17:49:07.495Z,4.40
2019-02-16T17:51:53.466Z,4.30
2019-02-16T17:54:45.479Z,4.30
2019-02-16T17:57:30.777Z,4.20
2019-02-16T18:00:09.772Z,4.10
2019-02-16T18:02:58.979Z,4.10
2019-02-16T18:05:48.301Z,3.90
2019-02-16T18:08:46.790Z,3.90
2019-02-16T18:11:32.727Z,3.80
2019-02-16T18:14:12.502Z,3.70
2019-02-16T18:17:00.098Z,3.70
2019-02-16T18:20:01.559Z,3.70
2019-02-16T18:22:53.626Z,3.60
2019-02-16T18:25:42.885Z,3.50
2019-02-16T18:28:30.990Z,3.50
2019-02-16T18:31:29.168Z,3.40
2019-02-16T18:34:24.260Z,3.40
2019-02-16T18:37:09.711Z,3.20
2019-02-16T18:39:58.030Z,3.00
2019-02-16T18:42:45.520Z,3.00
2019-02-16T18:45:22.308Z,3.00
2019-02-16T18:48:17.740Z,3.10
2019-02-16T18:51:10.188Z,3.10
2019-02-16T18:53:59.980Z,3.00
2019-02-16T18:56:52.535Z,2.90
2019-02-16T18:59:33.090Z,2.80
2019-02-16T19:02:21.314Z,2.70
2019-02-16T19:05:11.340Z,2.70
2019-02-16T19:07:50.080Z,2.60
2019-02-16T19:10:48.414Z,2.50
2019-02-16T19:13:29.138Z,2.60
2019-02-16T19:16:21.648Z,2.60
2019-02-16T19:19:10.613Z,2.40
2019-02-16T19:21:51.285Z,2.40
2019-02-16T19:24:42.914Z,2.30
2019-02-16T19:27:44.621Z,2.20
2019-02-16T19:30:34.277Z,2.20
2019-02-16T19:33:23.948Z,2.10
2019-02-16T19:36:18.897Z,2.10
2019-02-16T19:39:07.770Z,2.10
2019-02-16T19:41:44.714Z,2.20
2019-02-16T19:44:30.321Z,2.10
2019-02-16T19:47:28.959Z,2.00
2019-02-16T19:50:20.162Z,1.90
2019-02-16T19:53:12.728Z,1.80
2019-02-16T19:56:01.198Z,1.90
2019-02-16T19:58:47.481Z,1.90
2019-02-16T20:01:35.924Z,1.80
2019-02-16T20:04:34.556Z,1.70
2019-02-16T20:07:32.877Z,1.60
2019-02-16T20:10:11.331Z,1.60
2019-02-16T20:13:01.028Z,1.70
2019-02-16T20:15:50.543Z,1.70
2019-02-16T20:18:45.696Z,1.60
2019-02-16T20:21:25.455Z,1.50
2019-02-16T20:24:17.774Z,1.50
2019-02-16T20:27:10.090Z,1.40
2019-02-16T20:29:47.605Z,1.30
2019-02-16T20:32:40.005Z,1.30
2019-02-16T20:35:32.608Z,1.30
2019-02-16T20:38:36.926Z,1.30
2019-02-16T20:41:38.183Z,1.40
2019-02-16T20:44:30.318Z,1.30
2019-02-16T20:47:10.084Z,1.10
2019-02-16T20:49:47.778Z,1.10
2019-02-16T20:52:28.412Z,1.10
2019-02-16T20:55:06.422Z,1.10
2019-02-16T20:57:48.030Z,1.20
2019-02-16T21:00:29.801Z,1.20
2019-02-16T21:03:13.313Z,1.20
2019-02-16T21:06:20.843Z,1.10
2019-02-16T21:09:06.242Z,1.10
2019-02-16T21:11:56.297Z,1.00
2019-02-16T21:14:54.504Z,1.00
2019-02-16T21:17:45.153Z,0.90
2019-02-16T21:20:49.808Z,1.00
2019-02-16T21:23:42.414Z,0.90
2019-02-16T21:26:39.795Z,0.80
2019-02-16T21:29:18.429Z,0.90
2019-02-16T21:31:55.180Z,0.90
2019-02-16T21:35:02.588Z,0.80
2019-02-16T21:37:54.895Z,0.70
2019-02-16T21:40:59.753Z,0.70
2019-02-16T21:43:54.628Z,0.70
2019-02-16T21:46:34.105Z,0.70
2019-02-16T21:49:32.947Z,0.70
2019-02-16T21:52:29.115Z,0.60
2019-02-16T21:55:05.449Z,0.70
2019-02-16T21:58:07.548Z,0.70
2019-02-16T22:01:00.993Z,0.60
2019-02-16T22:03:50.694Z,0.60
2019-02-16T22:06:38.436Z,0.60
2019-02-16T22:09:16.906Z,0.50
2019-02-16T22:12:05.088Z,0.40
2019-02-16T22:14:35.459Z,0.30
2019-02-16T22:17:05.879Z,0.20
2019-02-16T22:19:36.378Z,0.20
2019-02-16T22:22:06.806Z,0.30
2019-02-16T22:24:37.331Z,0.30
2019-02-16T22:27:07.763Z,0.30
2019-02-16T22:29:38.241Z,0.20
2019-02-16T22:32:08.608Z,0.20
2019-02-16T22:34:39.083Z,0.20
2019-02-16T22:37:09.561Z,0.20
2019-02-16T22:39:39.973Z,0.20
2019-02-16T22:42:11.143Z,0.20
2019-02-16T22:44:41.542Z,0.10
2019-02-16T22:47:14.958Z,0.10
2019-02-16T22:49:45.486Z,0.20
2019-02-16T22:52:16.196Z,0.20
2019-02-16T22:54:47.227Z,0.20
2019-02-16T22:57:17.946Z,0.20
2019-02-16T22:59:48.447Z,0.10
2019-02-16T23:02:19.927Z,0.10
2019-02-16T23:04:51.110Z,0.00
2019-02-16T23:07:21.898Z,0.00
2019-02-16T23:09:52.428Z,-0.20
2019-02-16T23:12:23.068Z,-0.20
2019-02-16T23:14:53.869Z,-0.10
2019-02-16T23:17:24.776Z,-0.10
2019-02-16T23:19:55.873Z,-0.20
2019-02-16T23:22:26.263Z,-0.20
2019-02-16T23:24:56.838Z,-0.10
2019-02-16T23:27:27.342Z,-0.20
2019-02-16T23:29:57.952Z,-0.20
2019-02-16T23:32:28.368Z,-0.30
2019-02-16T23:34:58.951Z,-0.20
2019-02-16T23:37:29.320Z,-0.30
2019-02-16T23:39:59.814Z,-0.30
2019-02-16T23:42:30.235Z,-0.20
2019-02-16T23:45:00.742Z,-0.30
2019-02-16T23:47:31.127Z,-0.40
2019-02-16T23:50:01.554Z,-0.50
2019-02-16T23:52:31.903Z,-0.50
2019-02-16T23:55:02.219Z,-0.60
2019-02-16T23:57:32.533Z,-0.50
